sensor_id;sensor_type;location;lat;lon;timestamp;temperature;humidity
67763;DHT22;54566;52.022;5.582;2024-02-26T09:57:05;5.50;99.90
67763;DHT22;54566;52.022;5.582;2024-02-26T09:59:53;5.50;99.90
67763;DHT22;54566;52.022;5.582;2024-02-26T10:02:25;5.50;99.90
67763;DHT22;54566;52.022;5.582;2024-02-26T10:04:54;5.50;99.90
67763;DHT22;54566;52.022;5.582;2024-02-26T10:07:42;5.50;99.90
67763;DHT22;54566;52.022;5.582;2024-02-26T10:10:13;5.50;99.90
67763;DHT22;54566;52.022;5.582;2024-02-26T10:12:45;5.50;99.90
67763;DHT22;54566;52.022;5.582;2024-02-26T10:15:14;5.50;99.90
67763;DHT22;54566;52.022;5.582;2024-02-26T10:17:46;5.50;99.90
67763;DHT22;54566;52.022;5.582;2024-02-26T10:20:15;5.50;99.90
67763;DHT22;54566;52.022;5.582;2024-02-26T10:22:48;5.50;99.90
67763;DHT22;54566;52.022;5.582;2024-02-26T10:25:37;5.50;99.90
67763;DHT22;54566;52.022;5.582;2024-02-26T10:30:53;5.50;99.90
67763;DHT22;54566;52.022;5.582;2024-02-26T10:33:45;5.50;99.90
67763;DHT22;54566;52.022;5.582;2024-02-26T10:36:45;5.50;99.90
67763;DHT22;54566;52.022;5.582;2024-02-26T10:43:00;5.60;99.90
67763;DHT22;54566;52.022;5.582;2024-02-26T10:45:57;5.60;99.90
67763;DHT22;54566;52.022;5.582;2024-02-26T10:48:23;5.60;99.90
67763;DHT22;54566;52.022;5.582;2024-02-26T10:51:12;5.60;99.90
67763;DHT22;54566;52.022;5.582;2024-02-26T10:53:43;5.60;99.90
67763;DHT22;54566;52.022;5.582;2024-02-26T10:56:20;5.60;99.90
67763;DHT22;54566;52.022;5.582;2024-02-26T10:58:50;5.60;99.90
67763;DHT22;54566;52.022;5.582;2024-02-26T11:01:51;5.60;99.90
67763;DHT22;54566;52.022;5.582;2024-02-26T11:04:23;5.60;99.90
67763;DHT22;54566;52.022;5.582;2024-02-26T11:07:12;5.60;99.90
67763;DHT22;54566;52.022;5.582;2024-02-26T11:09:48;5.70;99.90
67763;DHT22;54566;52.022;5.582;2024-02-26T11:12:24;5.70;99.90
67763;DHT22;54566;52.022;5.582;2024-02-26T11:14:51;5.70;99.90
67763;DHT22;54566;52.022;5.582;2024-02-26T11:17:30;5.70;99.90
67763;DHT22;54566;52.022;5.582;2024-02-26T11:20:04;5.70;99.90
67763;DHT22;54566;52.022;5.582;2024-02-26T11:22:38;5.70;99.90
67763;DHT22;54566;52.022;5.582;2024-02-26T11:25:37;5.70;99.90
67763;DHT22;54566;52.022;5.582;2024-02-26T11:28:13;5.70;99.90
67763;DHT22;54566;52.022;5.582;2024-02-26T11:31:02;5.70;99.90
67763;DHT22;54566;52.022;5.582;2024-02-26T11:33:36;5.70;99.90
67763;DHT22;54566;52.022;5.582;2024-02-26T11:36:11;5.70;99.90
67763;DHT22;54566;52.022;5.582;2024-02-26T11:38:50;5.70;99.90
67763;DHT22;54566;52.022;5.582;2024-02-26T11:41:20;5.70;99.90
67763;DHT22;54566;52.022;5.582;2024-02-26T11:43:57;5.70;99.90
67763;DHT22;54566;52.022;5.582;2024-02-26T11:46:34;5.70;99.90
67763;DHT22;54566;52.022;5.582;2024-02-26T11:49:30;5.70;99.90
67763;DHT22;54566;52.022;5.582;2024-02-26T11:52:17;5.70;99.90
67763;DHT22;54566;52.022;5.582;2024-02-26T11:54:54;5.70;99.90
67763;DHT22;54566;52.022;5.582;2024-02-26T12:00:55;5.70;99.90
67763;DHT22;54566;52.022;5.582;2024-02-26T12:06:56;5.70;99.90
67763;DHT22;54566;52.022;5.582;2024-02-26T12:09:41;5.80;99.90
67763;DHT22;54566;52.022;5.582;2024-02-26T12:12:26;5.70;99.90
67763;DHT22;54566;52.022;5.582;2024-02-26T12:15:00;5.80;99.90
67763;DHT22;54566;52.022;5.582;2024-02-26T12:20:38;5.80;99.90
67763;DHT22;54566;52.022;5.582;2024-02-26T12:23:31;5.80;99.90
67763;DHT22;54566;52.022;5.582;2024-02-26T12:31:40;5.80;99.90
67763;DHT22;54566;52.022;5.582;2024-02-26T12:34:13;5.80;99.90
67763;DHT22;54566;52.022;5.582;2024-02-26T12:36:54;5.80;99.90
67763;DHT22;54566;52.022;5.582;2024-02-26T12:39:34;5.80;99.90
67763;DHT22;54566;52.022;5.582;2024-02-26T12:42:09;5.90;99.90
67763;DHT22;54566;52.022;5.582;2024-02-26T12:44:40;5.90;99.90
67763;DHT22;54566;52.022;5.582;2024-02-26T12:47:12;5.90;99.90
67763;DHT22;54566;52.022;5.582;2024-02-26T12:55:52;6.00;99.90
67763;DHT22;54566;52.022;5.582;2024-02-26T12:58:25;6.00;99.90
67763;DHT22;54566;52.022;5.582;2024-02-26T13:01:17;5.90;99.90
67763;DHT22;54566;52.022;5.582;2024-02-26T13:03:48;6.00;99.90
67763;DHT22;54566;52.022;5.582;2024-02-26T13:06:17;5.90;99.90
67763;DHT22;54566;52.022;5.582;2024-02-26T13:08:55;6.00;99.90
67763;DHT22;54566;52.022;5.582;2024-02-26T13:11:33;6.00;99.90
67763;DHT22;54566;52.022;5.582;2024-02-26T13:13:59;6.00;99.90
67763;DHT22;54566;52.022;5.582;2024-02-26T13:16:36;6.00;99.90
67763;DHT22;54566;52.022;5.582;2024-02-26T13:19:10;6.10;99.90
67763;DHT22;54566;52.022;5.582;2024-02-26T13:21:52;6.10;99.90
67763;DHT22;54566;52.022;5.582;2024-02-26T13:24:37;6.10;99.90
67763;DHT22;54566;52.022;5.582;2024-02-26T13:27:20;6.10;99.90
67763;DHT22;54566;52.022;5.582;2024-02-26T13:29:46;6.10;99.90
67763;DHT22;54566;52.022;5.582;2024-02-26T13:32:34;6.20;99.90
67763;DHT22;54566;52.022;5.582;2024-02-26T13:35:18;6.10;99.90
67763;DHT22;54566;52.022;5.582;2024-02-26T13:37:46;6.20;99.90
67763;DHT22;54566;52.022;5.582;2024-02-26T13:44:11;6.20;99.90
67763;DHT22;54566;52.022;5.582;2024-02-26T13:54:18;6.20;99.90
67763;DHT22;54566;52.022;5.582;2024-02-26T14:03:52;6.30;99.90
67763;DHT22;54566;52.022;5.582;2024-02-26T14:06:42;6.30;99.90
67763;DHT22;54566;52.022;5.582;2024-02-26T14:09:41;6.30;99.90
67763;DHT22;54566;52.022;5.582;2024-02-26T14:12:58;6.30;99.90
67763;DHT22;54566;52.022;5.582;2024-02-26T14:15:50;6.40;99.90
67763;DHT22;54566;52.022;5.582;2024-02-26T14:18:33;6.40;99.90
67763;DHT22;54566;52.022;5.582;2024-02-26T14:25:02;6.50;99.90
67763;DHT22;54566;52.022;5.582;2024-02-26T14:27:33;6.50;99.90
67763;DHT22;54566;52.022;5.582;2024-02-26T14:33:27;6.60;99.90
67763;DHT22;54566;52.022;5.582;2024-02-26T14:36:18;6.50;99.90
67763;DHT22;54566;52.022;5.582;2024-02-26T14:39:20;6.60;99.90
67763;DHT22;54566;52.022;5.582;2024-02-26T14:42:17;6.60;99.90
67763;DHT22;54566;52.022;5.582;2024-02-26T14:45:29;6.60;99.90
67763;DHT22;54566;52.022;5.582;2024-02-26T14:48:39;6.60;99.90
67763;DHT22;54566;52.022;5.582;2024-02-26T14:51:38;6.60;99.90
67763;DHT22;54566;52.022;5.582;2024-02-26T14:54:55;6.50;99.90
67763;DHT22;54566;52.022;5.582;2024-02-26T14:57:45;6.60;99.90
67763;DHT22;54566;52.022;5.582;2024-02-26T15:04:52;6.50;99.90
67763;DHT22;54566;52.022;5.582;2024-02-26T15:08:01;6.50;99.90
67763;DHT22;54566;52.022;5.582;2024-02-26T15:11:28;6.50;99.90
67763;DHT22;54566;52.022;5.582;2024-02-26T15:23:54;6.50;99.90
67763;DHT22;54566;52.022;5.582;2024-02-26T15:26:53;6.50;99.90
67763;DHT22;54566;52.022;5.582;2024-02-26T15:33:29;6.50;99.90
67763;DHT22;54566;52.022;5.582;2024-02-26T15:36:29;6.50;99.90
67763;DHT22;54566;52.022;5.582;2024-02-26T15:42:08;6.40;99.90
67763;DHT22;54566;52.022;5.582;2024-02-26T15:45:07;6.40;99.90
67763;DHT22;54566;52.022;5.582;2024-02-26T15:47:47;6.40;99.90
67763;DHT22;54566;52.022;5.582;2024-02-26T15:50:21;6.40;99.90
67763;DHT22;54566;52.022;5.582;2024-02-26T15:59:30;6.40;99.90
67763;DHT22;54566;52.022;5.582;2024-02-26T16:05:19;6.50;99.90
67763;DHT22;54566;52.022;5.582;2024-02-26T16:08:03;6.40;99.90
67763;DHT22;54566;52.022;5.582;2024-02-26T16:10:57;6.40;99.90
67763;DHT22;54566;52.022;5.582;2024-02-26T16:31:19;6.30;99.90
67763;DHT22;54566;52.022;5.582;2024-02-26T16:38:48;6.30;99.90
67763;DHT22;54566;52.022;5.582;2024-02-26T16:41:59;6.20;99.90
67763;DHT22;54566;52.022;5.582;2024-02-26T16:44:50;6.20;99.90
